Time;durP1;ratioP1;P1;durP2;ratioP2;P2;SDS_P1;SDS_P2;PMS_P1;PMS_P2;Temp;Humidity;BMP_temperature;BMP_pressure;BME280_temperature;BME280_humidity;BME280_pressure;Samples;Min_cycle;Max_cycle;Signal;HPM_P1;HPM_P2
2022/08/06 00:00:33;;;;;;;9.27;5.28;;;;;;;;;;4991414;28;20065;-62
2022/08/06 00:02:59;;;;;;;11.50;5.75;;;;;;;;;;4991366;28;20465;-62
2022/08/06 00:05:26;;;;;;;14.15;6.10;;;;;;;;;;4990692;28;20129;-62
2022/08/06 00:07:52;;;;;;;11.40;5.95;;;;;;;;;;4973932;28;20502;-62
2022/08/06 00:10:19;;;;;;;10.82;5.50;;;;;;;;;;4991361;28;20042;-62
2022/08/06 00:12:45;;;;;;;13.38;5.95;;;;;;;;;;4991045;28;20046;-62
2022/08/06 00:15:12;;;;;;;10.70;6.32;;;;;;;;;;4991425;28;20050;-62
2022/08/06 00:17:38;;;;;;;9.13;6.10;;;;;;;;;;4991259;28;20081;-62
2022/08/06 00:20:05;;;;;;;12.95;6.13;;;;;;;;;;4990627;28;20049;-62
2022/08/06 00:22:31;;;;;;;8.27;5.03;;;;;;;;;;4991344;28;20120;-62
2022/08/06 00:24:57;;;;;;;11.07;5.35;;;;;;;;;;4991169;28;20621;-62
2022/08/06 00:27:23;;;;;;;12.35;5.32;;;;;;;;;;4990740;28;20043;-62
2022/08/06 00:29:49;;;;;;;11.52;5.25;;;;;;;;;;4991153;28;20177;-62
2022/08/06 00:32:16;;;;;;;7.43;4.80;;;;;;;;;;4990982;28;20046;-62
2022/08/06 00:34:42;;;;;;;8.00;4.72;;;;;;;;;;4990627;28;20042;-62
2022/08/06 00:37:08;;;;;;;8.35;5.03;;;;;;;;;;4990921;28;20086;-62
2022/08/06 00:39:34;;;;;;;11.35;4.90;;;;;;;;;;4993975;28;20109;-62
2022/08/06 00:42:00;;;;;;;9.88;4.60;;;;;;;;;;4994251;28;20605;-62
2022/08/06 00:44:26;;;;;;;10.00;4.70;;;;;;;;;;4977006;28;20049;-62
2022/08/06 00:46:53;;;;;;;6.72;4.47;;;;;;;;;;4994447;28;20038;-62
2022/08/06 00:49:19;;;;;;;8.57;4.47;;;;;;;;;;4977466;28;20053;-62
2022/08/06 00:51:45;;;;;;;7.13;3.90;;;;;;;;;;4994677;28;20082;-62
2022/08/06 00:54:11;;;;;;;4.28;3.30;;;;;;;;;;4994841;28;20042;-62
2022/08/06 00:56:37;;;;;;;7.20;3.10;;;;;;;;;;4976982;28;20038;-62
2022/08/06 00:59:03;;;;;;;7.00;3.65;;;;;;;;;;4994117;28;20097;-62
2022/08/06 01:01:30;;;;;;;8.25;3.28;;;;;;;;;;4994739;28;20389;-62
2022/08/06 01:03:56;;;;;;;6.50;3.10;;;;;;;;;;4994610;28;20046;-62
2022/08/06 01:06:22;;;;;;;6.75;2.97;;;;;;;;;;4994093;28;20457;-62
2022/08/06 01:08:48;;;;;;;5.30;2.88;;;;;;;;;;4994515;28;20034;-62
2022/08/06 01:11:14;;;;;;;9.07;3.40;;;;;;;;;;4994318;28;20046;-62
2022/08/06 01:13:40;;;;;;;6.47;2.85;;;;;;;;;;4994074;28;20150;-62
2022/08/06 01:16:23;;;;;;;5.18;2.50;;;;;;;;;;4994461;28;20038;-62
2022/08/06 01:18:54;;;;;;;5.97;2.50;;;;;;;;;;4994442;28;20038;-62
2022/08/06 01:21:31;;;;;;;6.07;2.15;;;;;;;;;;4993937;28;20082;-62
2022/08/06 01:24:12;;;;;;;4.05;2.15;;;;;;;;;;4994341;28;20476;-62
2022/08/06 01:26:38;;;;;;;7.20;2.15;;;;;;;;;;4993517;28;20046;-62
2022/08/06 01:29:20;;;;;;;4.38;2.05;;;;;;;;;;4994372;28;20039;-62
2022/08/06 01:31:46;;;;;;;7.60;2.28;;;;;;;;;;4994004;28;20050;-62
2022/08/06 01:34:19;;;;;;;3.92;2.03;;;;;;;;;;4993698;28;20371;-62
2022/08/06 01:36:48;;;;;;;4.30;1.70;;;;;;;;;;4976155;28;20367;-62
2022/08/06 01:39:16;;;;;;;5.53;2.03;;;;;;;;;;4994140;28;20210;-62
2022/08/06 01:41:45;;;;;;;4.05;2.00;;;;;;;;;;4993543;28;20598;-62
2022/08/06 01:44:13;;;;;;;5.78;2.00;;;;;;;;;;4994024;28;20046;-62
2022/08/06 01:46:42;;;;;;;4.75;2.25;;;;;;;;;;4993349;28;20042;-62
2022/08/06 01:49:10;;;;;;;3.53;1.95;;;;;;;;;;4975234;28;20058;-62
2022/08/06 01:51:36;;;;;;;4.93;1.92;;;;;;;;;;4993766;28;20583;-62
2022/08/06 01:54:03;;;;;;;2.72;2.15;;;;;;;;;;4993714;28;20105;-62
2022/08/06 01:56:30;;;;;;;3.75;2.47;;;;;;;;;;4993145;28;20038;-62
2022/08/06 01:58:57;;;;;;;4.07;2.10;;;;;;;;;;4993543;28;20101;-62
2022/08/06 02:01:24;;;;;;;7.38;2.78;;;;;;;;;;4993715;28;20046;-62
2022/08/06 02:03:53;;;;;;;3.50;2.53;;;;;;;;;;4992842;28;20125;-62
2022/08/06 02:06:25;;;;;;;4.38;2.40;;;;;;;;;;4993473;28;20034;-62
2022/08/06 02:08:52;;;;;;;4.35;2.35;;;;;;;;;;4993551;28;20117;-62
2022/08/06 02:11:18;;;;;;;3.33;2.50;;;;;;;;;;4992945;28;20066;-62
2022/08/06 02:13:45;;;;;;;4.88;2.70;;;;;;;;;;4993340;28;20042;-62
2022/08/06 02:16:12;;;;;;;4.90;2.70;;;;;;;;;;4993098;28;20073;-62
2022/08/06 02:18:41;;;;;;;4.47;2.70;;;;;;;;;;4992688;28;20454;-62
2022/08/06 02:21:08;;;;;;;4.65;2.58;;;;;;;;;;4993266;28;20038;-62
2022/08/06 02:23:35;;;;;;;5.75;2.75;;;;;;;;;;4993026;28;20049;-62
2022/08/06 02:26:02;;;;;;;4.65;2.40;;;;;;;;;;4992673;28;20042;-62
2022/08/06 02:28:29;;;;;;;6.70;3.08;;;;;;;;;;4992666;28;20038;-62
2022/08/06 02:30:56;;;;;;;7.10;2.70;;;;;;;;;;4992773;28;20042;-62
2022/08/06 02:33:22;;;;;;;4.78;3.30;;;;;;;;;;4992662;28;20508;-62
2022/08/06 02:35:57;;;;;;;5.22;2.88;;;;;;;;;;4992302;28;20038;-62
2022/08/06 02:38:28;;;;;;;4.00;2.72;;;;;;;;;;4992016;28;20125;-62
2022/08/06 02:40:57;;;;;;;5.63;2.92;;;;;;;;;;4992251;28;20564;-62
2022/08/06 02:43:28;;;;;;;4.68;2.65;;;;;;;;;;4992242;28;20093;-62
2022/08/06 02:45:58;;;;;;;4.32;2.70;;;;;;;;;;4992287;28;20042;-62
2022/08/06 02:48:27;;;;;;;5.18;2.50;;;;;;;;;;4991408;28;20592;-62
2022/08/06 02:50:53;;;;;;;3.67;2.40;;;;;;;;;;4991963;28;20049;-62
2022/08/06 02:53:22;;;;;;;4.35;2.20;;;;;;;;;;4992288;28;20085;-62
2022/08/06 02:55:49;;;;;;;4.40;2.22;;;;;;;;;;4991994;28;20381;-62
2022/08/06 02:58:20;;;;;;;4.60;2.20;;;;;;;;;;4992199;28;20755;-62
2022/08/06 03:00:47;;;;;;;6.15;2.80;;;;;;;;;;4991952;28;20594;-62
2022/08/06 03:03:14;;;;;;;3.90;2.45;;;;;;;;;;4974598;28;20428;-62
2022/08/06 03:05:42;;;;;;;3.13;2.28;;;;;;;;;;4992469;28;20188;-62
2022/08/06 03:08:09;;;;;;;4.18;2.78;;;;;;;;;;4992275;28;20561;-62
2022/08/06 03:10:36;;;;;;;3.65;2.33;;;;;;;;;;4992011;28;20095;-62
2022/08/06 03:13:05;;;;;;;4.82;2.33;;;;;;;;;;4992424;28;20046;-62
2022/08/06 03:15:32;;;;;;;3.30;2.70;;;;;;;;;;4992433;28;20051;-62
2022/08/06 03:18:00;;;;;;;3.65;2.67;;;;;;;;;;4991828;28;20030;-62
2022/08/06 03:20:27;;;;;;;3.25;2.35;;;;;;;;;;4974714;28;20085;-62
2022/08/06 03:22:55;;;;;;;3.40;2.20;;;;;;;;;;4992193;28;20141;-62
2022/08/06 03:25:21;;;;;;;4.43;2.50;;;;;;;;;;4991576;28;20131;-62
2022/08/06 03:27:48;;;;;;;5.43;2.30;;;;;;;;;;4992036;28;20502;-62
2022/08/06 03:30:15;;;;;;;4.53;2.30;;;;;;;;;;4992087;28;20096;-62
2022/08/06 03:32:41;;;;;;;2.83;1.92;;;;;;;;;;4991699;28;20140;-62
2022/08/06 03:35:08;;;;;;;5.85;2.05;;;;;;;;;;4991889;28;20046;-62
2022/08/06 03:37:34;;;;;;;6.55;2.53;;;;;;;;;;4991758;28;20454;-62
2022/08/06 03:40:01;;;;;;;5.72;2.33;;;;;;;;;;4991340;28;20037;-62
2022/08/06 03:42:27;;;;;;;2.75;2.20;;;;;;;;;;4991617;28;20093;-62
2022/08/06 03:44:53;;;;;;;3.92;2.63;;;;;;;;;;4991698;28;20089;-62
2022/08/06 03:47:28;;;;;;;2.78;2.30;;;;;;;;;;4990865;28;20053;-62
2022/08/06 03:50:02;;;;;;;2.90;2.40;;;;;;;;;;4991733;28;20118;-62
2022/08/06 03:52:30;;;;;;;4.45;2.20;;;;;;;;;;4991545;28;20350;-62
2022/08/06 03:54:59;;;;;;;6.63;2.47;;;;;;;;;;4990779;28;20050;-62
2022/08/06 03:57:27;;;;;;;3.15;2.58;;;;;;;;;;4991274;28;20081;-62
2022/08/06 03:59:58;;;;;;;4.47;2.50;;;;;;;;;;4991578;28;20038;-62
2022/08/06 04:02:27;;;;;;;2.15;1.90;;;;;;;;;;4991174;28;20043;-62
2022/08/06 04:04:54;;;;;;;3.95;2.08;;;;;;;;;;4991441;28;20389;-62
2022/08/06 04:07:20;;;;;;;2.28;2.00;;;;;;;;;;4991317;28;20692;-62
2022/08/06 04:09:46;;;;;;;3.78;2.42;;;;;;;;;;4990933;28;20046;-62
2022/08/06 04:12:12;;;;;;;4.20;2.17;;;;;;;;;;4973953;28;20546;-62
2022/08/06 04:14:39;;;;;;;3.42;2.22;;;;;;;;;;4991162;28;20120;-62
2022/08/06 04:17:06;;;;;;;2.40;2.15;;;;;;;;;;4990882;28;20046;-62
2022/08/06 04:19:33;;;;;;;3.05;2.17;;;;;;;;;;4991305;28;20046;-62
2022/08/06 04:21:59;;;;;;;3.80;2.10;;;;;;;;;;4991324;28;20037;-62
2022/08/06 04:24:25;;;;;;;2.92;2.17;;;;;;;;;;4990839;28;20421;-62
2022/08/06 04:26:52;;;;;;;2.90;2.17;;;;;;;;;;4991260;28;20046;-62
2022/08/06 04:29:20;;;;;;;3.25;2.30;;;;;;;;;;4990946;28;20194;-62
2022/08/06 04:31:48;;;;;;;4.35;2.30;;;;;;;;;;4990891;28;20054;-62
2022/08/06 04:34:18;;;;;;;4.20;2.40;;;;;;;;;;4991165;28;20046;-62
2022/08/06 04:36:44;;;;;;;3.13;2.40;;;;;;;;;;4991048;28;20042;-62
2022/08/06 04:39:11;;;;;;;2.28;2.05;;;;;;;;;;4990629;28;20038;-62
2022/08/06 04:41:37;;;;;;;6.00;2.20;;;;;;;;;;4991062;28;20057;-62
2022/08/06 04:44:03;;;;;;;4.72;2.05;;;;;;;;;;4990719;28;20073;-62
2022/08/06 04:46:29;;;;;;;3.67;2.40;;;;;;;;;;4990574;28;20077;-62
2022/08/06 04:48:55;;;;;;;3.08;2.08;;;;;;;;;;4973160;28;20094;-62
2022/08/06 04:51:25;;;;;;;3.90;2.17;;;;;;;;;;4990957;28;20565;-62
2022/08/06 04:53:51;;;;;;;4.05;2.30;;;;;;;;;;4990564;28;20454;-62
2022/08/06 04:56:17;;;;;;;7.50;2.80;;;;;;;;;;4990926;28;20379;-62
2022/08/06 04:58:44;;;;;;;4.97;2.45;;;;;;;;;;4990960;28;20414;-62
2022/08/06 05:01:10;;;;;;;3.65;2.28;;;;;;;;;;4990640;28;20042;-62
2022/08/06 05:03:36;;;;;;;6.45;2.72;;;;;;;;;;4990817;28;20093;-62
2022/08/06 05:06:11;;;;;;;4.93;2.95;;;;;;;;;;4990947;28;20131;-62
2022/08/06 05:08:39;;;;;;;2.63;2.25;;;;;;;;;;4990155;28;20038;-62
2022/08/06 05:11:15;;;;;;;4.82;2.60;;;;;;;;;;4991001;28;20086;-62
2022/08/06 05:13:43;;;;;;;2.47;2.15;;;;;;;;;;4990638;28;20056;-62
2022/08/06 05:16:10;;;;;;;4.18;2.53;;;;;;;;;;4990271;28;20101;-62
2022/08/06 05:18:42;;;;;;;3.47;2.17;;;;;;;;;;4990672;28;20039;-62
2022/08/06 05:21:08;;;;;;;4.03;2.25;;;;;;;;;;4990731;28;20473;-62
2022/08/06 05:23:37;;;;;;;4.57;2.53;;;;;;;;;;4990235;28;20422;-62
2022/08/06 05:26:03;;;;;;;4.38;2.53;;;;;;;;;;4994027;28;20030;-62
2022/08/06 05:28:31;;;;;;;5.55;2.60;;;;;;;;;;4994133;28;20045;-62
2022/08/06 05:30:57;;;;;;;3.17;1.98;;;;;;;;;;4993515;28;20397;-62
2022/08/06 05:33:33;;;;;;;3.30;1.73;;;;;;;;;;4994089;28;20498;-62
2022/08/06 05:35:59;;;;;;;2.70;1.90;;;;;;;;;;4993666;28;20112;-62
2022/08/06 05:38:29;;;;;;;2.50;2.13;;;;;;;;;;4993383;28;20508;-62
2022/08/06 05:40:58;;;;;;;2.42;2.20;;;;;;;;;;4976293;28;20073;-62
2022/08/06 05:43:25;;;;;;;3.38;2.20;;;;;;;;;;4993587;28;20050;-62
2022/08/06 05:45:52;;;;;;;2.40;2.05;;;;;;;;;;4993565;28;20043;-62
2022/08/06 05:48:20;;;;;;;3.50;2.20;;;;;;;;;;4993401;28;20065;-62
2022/08/06 05:51:09;;;;;;;2.67;2.10;;;;;;;;;;4993777;28;20061;-62
2022/08/06 05:53:38;;;;;;;2.72;2.10;;;;;;;;;;4956533;28;20064;-62
2022/08/06 05:56:11;;;;;;;2.30;1.60;;;;;;;;;;4993705;28;20049;-62
2022/08/06 05:58:43;;;;;;;3.33;1.60;;;;;;;;;;4993702;28;20045;-62
2022/08/06 06:01:09;;;;;;;6.47;1.90;;;;;;;;;;4993421;28;20122;-62
2022/08/06 06:03:37;;;;;;;2.00;1.60;;;;;;;;;;4993668;28;20049;-62
2022/08/06 06:06:04;;;;;;;5.43;1.70;;;;;;;;;;4976210;28;20078;-62
2022/08/06 06:08:30;;;;;;;3.30;1.70;;;;;;;;;;4992815;28;20049;-62
2022/08/06 06:10:56;;;;;;;6.20;2.08;;;;;;;;;;4993479;28;20100;-62
2022/08/06 06:13:23;;;;;;;3.55;1.77;;;;;;;;;;4993518;28;20122;-62
2022/08/06 06:15:51;;;;;;;2.00;1.58;;;;;;;;;;4992887;28;20038;-62
2022/08/06 06:18:20;;;;;;;4.32;2.17;;;;;;;;;;4993284;28;20038;-62
2022/08/06 06:20:51;;;;;;;2.65;1.73;;;;;;;;;;4993231;28;20042;-62
2022/08/06 06:23:21;;;;;;;3.20;2.05;;;;;;;;;;4992888;28;20085;-62
2022/08/06 06:25:53;;;;;;;2.42;1.70;;;;;;;;;;4992891;28;20038;-62
2022/08/06 06:28:22;;;;;;;2.90;1.40;;;;;;;;;;4993049;28;20047;-62
2022/08/06 06:30:48;;;;;;;3.55;1.90;;;;;;;;;;4992798;28;20078;-62
2022/08/06 06:33:19;;;;;;;2.20;1.38;;;;;;;;;;4993018;28;20094;-62
2022/08/06 06:35:51;;;;;;;1.75;1.23;;;;;;;;;;4991985;28;20043;-62
2022/08/06 06:38:38;;;;;;;4.32;1.20;;;;;;;;;;4992422;28;20378;-62
2022/08/06 06:41:09;;;;;;;3.05;1.20;;;;;;;;;;4992901;28;20088;-62
2022/08/06 06:43:38;;;;;;;4.07;1.50;;;;;;;;;;4992667;28;20049;-62
2022/08/06 06:46:04;;;;;;;4.20;1.35;;;;;;;;;;4992458;28;20042;-62
2022/08/06 06:48:57;;;;;;;1.65;1.00;;;;;;;;;;4992359;28;20086;-62
2022/08/06 06:51:34;;;;;;;3.28;1.13;;;;;;;;;;4988889;28;20052;-62
2022/08/06 06:54:00;;;;;;;2.17;1.00;;;;;;;;;;4992073;28;20105;-62
2022/08/06 06:56:28;;;;;;;2.40;1.00;;;;;;;;;;4992454;28;20038;-62
2022/08/06 06:59:00;;;;;;;1.17;1.00;;;;;;;;;;4992557;28;20080;-62
2022/08/06 07:01:30;;;;;;;2.17;0.80;;;;;;;;;;4992158;28;20042;-62
2022/08/06 07:03:57;;;;;;;1.27;0.80;;;;;;;;;;4992431;28;20097;-62
2022/08/06 07:06:24;;;;;;;2.65;1.00;;;;;;;;;;4992192;28;20042;-62
2022/08/06 07:08:51;;;;;;;2.72;1.02;;;;;;;;;;4992030;28;20473;-62
2022/08/06 07:11:19;;;;;;;2.95;1.02;;;;;;;;;;4992326;28;20493;-62
2022/08/06 07:13:46;;;;;;;2.65;1.20;;;;;;;;;;4992290;28;20148;-62
2022/08/06 07:16:14;;;;;;;2.67;0.85;;;;;;;;;;4991464;28;20128;-62
2022/08/06 07:18:41;;;;;;;3.42;0.90;;;;;;;;;;4992064;28;20038;-62
2022/08/06 07:21:07;;;;;;;2.20;0.93;;;;;;;;;;4991848;28;20046;-62
2022/08/06 07:23:34;;;;;;;2.08;1.05;;;;;;;;;;4991735;28;20034;-62
2022/08/06 07:26:01;;;;;;;3.17;0.73;;;;;;;;;;4992120;28;20117;-62
2022/08/06 07:28:28;;;;;;;4.22;1.17;;;;;;;;;;4974221;28;20787;-62
2022/08/06 07:30:54;;;;;;;2.55;0.80;;;;;;;;;;4991789;28;20066;-62
2022/08/06 07:33:20;;;;;;;2.65;0.88;;;;;;;;;;4991987;28;20401;-62
2022/08/06 07:35:47;;;;;;;2.75;0.90;;;;;;;;;;4991717;28;20065;-62
2022/08/06 07:38:15;;;;;;;2.67;0.98;;;;;;;;;;4991272;28;20038;-62
2022/08/06 07:40:44;;;;;;;4.03;0.90;;;;;;;;;;4991785;28;20077;-62
2022/08/06 07:43:10;;;;;;;4.82;0.90;;;;;;;;;;4991711;28;20038;-62
2022/08/06 07:45:36;;;;;;;1.33;0.60;;;;;;;;;;4991255;28;20732;-62
2022/08/06 07:48:12;;;;;;;4.35;0.70;;;;;;;;;;4991134;28;20533;-62
2022/08/06 07:50:40;;;;;;;2.08;0.80;;;;;;;;;;4991777;28;20484;-62
2022/08/06 07:53:07;;;;;;;6.10;0.85;;;;;;;;;;4991146;28;20057;-62
2022/08/06 07:55:33;;;;;;;3.88;0.80;;;;;;;;;;4991641;28;20042;-62
2022/08/06 07:58:01;;;;;;;2.33;0.73;;;;;;;;;;4991164;28;20039;-62
2022/08/06 08:00:27;;;;;;;4.43;0.80;;;;;;;;;;4991250;28;20038;-62
2022/08/06 08:08:27;;;;;;;2.38;0.60;;;;;;;;;;4991066;28;20108;-62
2022/08/06 08:10:56;;;;;;;1.98;0.77;;;;;;;;;;4991470;28;20042;-62
2022/08/06 08:13:23;;;;;;;1.80;0.60;;;;;;;;;;4991344;28;20388;-62
2022/08/06 08:15:49;;;;;;;1.15;0.40;;;;;;;;;;4991020;28;20042;-62
2022/08/06 08:18:15;;;;;;;1.38;0.50;;;;;;;;;;4991219;28;20057;-62
2022/08/06 08:20:43;;;;;;;2.78;0.50;;;;;;;;;;4991489;28;20039;-62
2022/08/06 08:23:11;;;;;;;1.55;0.50;;;;;;;;;;4990849;28;20129;-62
2022/08/06 08:25:38;;;;;;;2.08;0.60;;;;;;;;;;4991192;28;20085;-62
2022/08/06 08:28:04;;;;;;;2.50;0.60;;;;;;;;;;4973538;28;20101;-62
2022/08/06 08:30:31;;;;;;;2.55;0.70;;;;;;;;;;4990918;28;20034;-62
2022/08/06 08:32:57;;;;;;;1.02;0.38;;;;;;;;;;4991151;28;20097;-62
2022/08/06 08:35:23;;;;;;;2.13;0.55;;;;;;;;;;4990370;28;20043;-62
2022/08/06 08:37:49;;;;;;;1.88;0.40;;;;;;;;;;4990071;28;20070;-62
2022/08/06 08:40:15;;;;;;;4.25;0.60;;;;;;;;;;4990897;28;20034;-62
2022/08/06 08:42:44;;;;;;;2.42;0.40;;;;;;;;;;4990557;28;20182;-62
2022/08/06 08:45:10;;;;;;;2.13;0.73;;;;;;;;;;4989618;28;20042;-62
2022/08/06 08:47:39;;;;;;;3.03;0.60;;;;;;;;;;4990114;28;20062;-63
2022/08/06 08:50:06;;;;;;;2.67;0.68;;;;;;;;;;4990483;28;20127;-62
2022/08/06 08:52:33;;;;;;;8.40;1.30;;;;;;;;;;4990400;28;20096;-62
2022/08/06 08:55:05;;;;;;;5.07;0.80;;;;;;;;;;4990689;28;20081;-62
2022/08/06 08:57:33;;;;;;;2.85;0.70;;;;;;;;;;4990893;28;20445;-62
2022/08/06 09:00:00;;;;;;;2.25;0.77;;;;;;;;;;4992329;28;20553;-62
2022/08/06 09:02:26;;;;;;;3.72;0.70;;;;;;;;;;4994678;28;20049;-62
2022/08/06 09:04:53;;;;;;;1.35;0.68;;;;;;;;;;4994376;28;20046;-62
2022/08/06 09:07:19;;;;;;;4.43;1.45;;;;;;;;;;4994158;28;20042;-62
2022/08/06 09:09:45;;;;;;;2.10;1.30;;;;;;;;;;4994579;28;20085;-62
2022/08/06 09:12:11;;;;;;;4.10;1.52;;;;;;;;;;4994521;28;20042;-62
2022/08/06 09:14:38;;;;;;;3.70;1.55;;;;;;;;;;4993966;28;20473;-62
2022/08/06 09:17:04;;;;;;;3.78;1.83;;;;;;;;;;4994479;28;20484;-62
2022/08/06 09:19:31;;;;;;;2.20;1.42;;;;;;;;;;4994394;28;20034;-62
2022/08/06 09:21:57;;;;;;;7.15;1.55;;;;;;;;;;4993787;28;20053;-62
2022/08/06 09:24:23;;;;;;;3.53;1.33;;;;;;;;;;4994421;28;20072;-62
2022/08/06 09:27:09;;;;;;;4.25;1.65;;;;;;;;;;4993827;28;20035;-62
2022/08/06 09:29:37;;;;;;;2.08;1.40;;;;;;;;;;4993926;28;20046;-62
2022/08/06 09:32:04;;;;;;;4.38;1.30;;;;;;;;;;4976709;28;20061;-62
2022/08/06 09:34:37;;;;;;;5.25;1.65;;;;;;;;;;4994047;28;20505;-62
2022/08/06 09:37:04;;;;;;;3.25;1.48;;;;;;;;;;4975903;28;20371;-62
2022/08/06 09:39:39;;;;;;;5.28;1.88;;;;;;;;;;4994019;28;20066;-62
2022/08/06 09:42:06;;;;;;;5.45;1.95;;;;;;;;;;4994152;28;20046;-62
2022/08/06 09:44:32;;;;;;;6.82;1.90;;;;;;;;;;4993591;28;20042;-62
2022/08/06 09:46:59;;;;;;;3.38;1.65;;;;;;;;;;4993446;28;20457;-62
2022/08/06 09:49:26;;;;;;;2.83;1.90;;;;;;;;;;4994001;28;20092;-62
2022/08/06 09:52:09;;;;;;;3.38;1.77;;;;;;;;;;4993496;28;20054;-62
2022/08/06 09:54:39;;;;;;;4.53;1.90;;;;;;;;;;4993832;28;20072;-62
2022/08/06 09:57:05;;;;;;;2.45;1.70;;;;;;;;;;4993335;28;20048;-62
2022/08/06 09:59:41;;;;;;;3.70;1.90;;;;;;;;;;4993702;28;20042;-62
2022/08/06 10:02:12;;;;;;;3.08;1.50;;;;;;;;;;4976211;28;20038;-62
2022/08/06 10:04:38;;;;;;;5.38;1.73;;;;;;;;;;4992919;28;20073;-62
2022/08/06 10:07:04;;;;;;;4.00;1.92;;;;;;;;;;4993367;28;20101;-62
2022/08/06 10:09:32;;;;;;;2.78;1.52;;;;;;;;;;4993514;28;20042;-62
2022/08/06 10:11:59;;;;;;;2.25;1.38;;;;;;;;;;4992917;28;20112;-62
2022/08/06 10:14:29;;;;;;;3.15;1.83;;;;;;;;;;4993075;28;20046;-62
2022/08/06 10:17:04;;;;;;;2.97;1.75;;;;;;;;;;4993443;28;20046;-62
2022/08/06 10:19:30;;;;;;;2.70;1.80;;;;;;;;;;4992958;28;20462;-62
2022/08/06 10:22:03;;;;;;;5.40;2.10;;;;;;;;;;4993207;28;20383;-62
2022/08/06 10:24:29;;;;;;;2.67;1.40;;;;;;;;;;4993183;28;20108;-62
2022/08/06 10:26:56;;;;;;;2.25;1.40;;;;;;;;;;4992594;28;20046;-62
2022/08/06 10:29:23;;;;;;;2.78;1.42;;;;;;;;;;4993131;28;20128;-62
2022/08/06 10:31:50;;;;;;;3.63;1.70;;;;;;;;;;4992876;28;20049;-62
2022/08/06 10:34:21;;;;;;;2.58;1.60;;;;;;;;;;4992543;28;20065;-62
2022/08/06 10:36:58;;;;;;;4.50;2.25;;;;;;;;;;4992732;28;20128;-62
2022/08/06 10:39:28;;;;;;;1.90;1.23;;;;;;;;;;4992941;28;20449;-62
2022/08/06 10:41:55;;;;;;;3.40;1.80;;;;;;;;;;4992455;28;20390;-63
2022/08/06 10:44:24;;;;;;;2.50;1.30;;;;;;;;;;4992760;28;20046;-62
2022/08/06 10:46:53;;;;;;;3.00;1.75;;;;;;;;;;4992439;28;20052;-62
2022/08/06 10:49:23;;;;;;;1.73;1.30;;;;;;;;;;4992559;28;20046;-63
2022/08/06 10:51:49;;;;;;;3.05;1.83;;;;;;;;;;4992486;28;20057;-62
2022/08/06 10:54:16;;;;;;;1.92;1.35;;;;;;;;;;4992345;28;20050;-62
2022/08/06 10:56:42;;;;;;;2.35;1.30;;;;;;;;;;4992066;28;20042;-62
2022/08/06 10:59:09;;;;;;;3.17;1.40;;;;;;;;;;4992597;28;20050;-62
2022/08/06 11:01:47;;;;;;;2.95;1.50;;;;;;;;;;4992463;28;20049;-62
2022/08/06 11:04:22;;;;;;;2.33;1.13;;;;;;;;;;4992064;28;20034;-62
2022/08/06 11:07:18;;;;;;;1.65;1.15;;;;;;;;;;4992175;28;20038;-62
2022/08/06 11:10:02;;;;;;;3.30;1.50;;;;;;;;;;4975741;28;20054;-63
2022/08/06 11:12:47;;;;;;;2.38;1.42;;;;;;;;;;4991967;28;20467;-63
2022/08/06 11:15:13;;;;;;;2.47;1.33;;;;;;;;;;4992291;28;20334;-62
2022/08/06 11:17:44;;;;;;;2.80;1.40;;;;;;;;;;4974541;28;20170;-62
2022/08/06 11:20:30;;;;;;;2.33;1.27;;;;;;;;;;4991712;28;20049;-62
2022/08/06 11:22:56;;;;;;;2.22;1.33;;;;;;;;;;4991417;28;20050;-63
2022/08/06 11:25:38;;;;;;;1.73;1.40;;;;;;;;;;4991793;28;20588;-63
2022/08/06 11:28:04;;;;;;;3.15;1.38;;;;;;;;;;4991750;28;20042;-62
2022/08/06 11:30:46;;;;;;;2.35;1.40;;;;;;;;;;4991834;28;20042;-62
2022/08/06 11:33:12;;;;;;;;;;;;;;;;;;4992340;28;20354;-62
2022/08/06 11:35:43;;;;;;;2.03;1.50;;;;;;;;;;4991730;28;19933;-63
2022/08/06 11:38:10;;;;;;;2.97;1.30;;;;;;;;;;4974189;28;20078;-63
2022/08/06 11:40:55;;;;;;;4.25;1.20;;;;;;;;;;4991709;28;20077;-63
2022/08/06 11:43:40;;;;;;;4.38;1.40;;;;;;;;;;4991507;28;20042;-63
2022/08/06 11:46:19;;;;;;;2.42;1.38;;;;;;;;;;4991582;28;20046;-63
2022/08/06 11:48:57;;;;;;;2.55;1.27;;;;;;;;;;4990980;28;20058;-62
2022/08/06 11:51:36;;;;;;;2.67;1.20;;;;;;;;;;4991597;28;20046;-63
2022/08/06 11:54:09;;;;;;;2.40;1.40;;;;;;;;;;4991662;28;20650;-63
2022/08/06 11:56:35;;;;;;;3.05;1.50;;;;;;;;;;4991155;28;20306;-63
2022/08/06 11:59:14;;;;;;;2.58;1.20;;;;;;;;;;4991558;28;20650;-63
2022/08/06 12:01:46;;;;;;;5.93;1.50;;;;;;;;;;4991280;28;20385;-63
2022/08/06 12:04:31;;;;;;;5.40;1.42;;;;;;;;;;4990835;28;20038;-62
2022/08/06 12:07:16;;;;;;;1.90;1.40;;;;;;;;;;4973789;28;20039;-63
2022/08/06 12:09:43;;;;;;;4.53;1.60;;;;;;;;;;4991487;28;20034;-63
2022/08/06 12:12:24;;;;;;;3.60;1.40;;;;;;;;;;4990797;28;20066;-62
2022/08/06 12:14:51;;;;;;;3.25;1.50;;;;;;;;;;4991194;28;20078;-63
2022/08/06 12:17:18;;;;;;;4.68;2.03;;;;;;;;;;4991219;28;20042;-63
2022/08/06 12:19:45;;;;;;;2.50;1.63;;;;;;;;;;4990740;28;20038;-63
2022/08/06 12:22:15;;;;;;;1.60;1.40;;;;;;;;;;4991456;28;20046;-63
2022/08/06 12:24:45;;;;;;;3.97;1.85;;;;;;;;;;4991401;28;20052;-63
2022/08/06 12:27:12;;;;;;;3.25;1.67;;;;;;;;;;4990865;28;20422;-62
2022/08/06 12:29:38;;;;;;;3.58;1.60;;;;;;;;;;4991364;28;20057;-63
2022/08/06 12:32:30;;;;;;;3.47;1.60;;;;;;;;;;4990941;28;20042;-63
2022/08/06 12:34:58;;;;;;;3.08;1.45;;;;;;;;;;4990846;28;20081;-63
2022/08/06 12:37:35;;;;;;;3.33;1.73;;;;;;;;;;4994747;28;20046;-63
2022/08/06 12:42:46;;;;;;;3.55;1.50;;;;;;;;;;4995166;28;20047;-63
2022/08/06 12:45:13;;;;;;;3.47;1.58;;;;;;;;;;4994625;28;20048;-63
2022/08/06 12:47:39;;;;;;;2.67;1.63;;;;;;;;;;4994308;28;20405;-63
2022/08/06 12:50:18;;;;;;;3.17;1.55;;;;;;;;;;4994823;28;20050;-63
2022/08/06 12:52:44;;;;;;;3.70;1.60;;;;;;;;;;4994904;28;20050;-63
2022/08/06 12:55:19;;;;;;;3.65;1.75;;;;;;;;;;4976681;28;20046;-63
2022/08/06 12:57:45;;;;;;;3.92;1.73;;;;;;;;;;4994600;28;20451;-63
2022/08/06 13:00:12;;;;;;;2.28;1.65;;;;;;;;;;4994730;28;20078;-63
2022/08/06 13:02:38;;;;;;;2.20;1.50;;;;;;;;;;4994372;28;20035;-63
2022/08/06 13:05:04;;;;;;;3.47;1.60;;;;;;;;;;4994637;28;20433;-63
2022/08/06 13:07:30;;;;;;;2.10;1.63;;;;;;;;;;4994156;28;20046;-63
2022/08/06 13:09:56;;;;;;;2.60;1.48;;;;;;;;;;4994254;28;20609;-62
2022/08/06 13:12:22;;;;;;;3.03;1.98;;;;;;;;;;4994660;28;20551;-62
2022/08/06 13:14:49;;;;;;;3.13;1.75;;;;;;;;;;4994523;28;20049;-63
2022/08/06 13:17:15;;;;;;;3.58;2.00;;;;;;;;;;4994067;28;20497;-63
2022/08/06 13:19:52;;;;;;;3.05;1.85;;;;;;;;;;4994498;28;20042;-63
2022/08/06 13:22:18;;;;;;;2.70;1.90;;;;;;;;;;4994458;28;20038;-63
2022/08/06 13:24:44;;;;;;;3.15;1.67;;;;;;;;;;4993953;28;20662;-63
2022/08/06 13:27:10;;;;;;;3.08;1.80;;;;;;;;;;4976673;28;20038;-63
2022/08/06 13:29:36;;;;;;;3.08;1.77;;;;;;;;;;4994139;28;20047;-63
2022/08/06 13:32:09;;;;;;;2.45;1.80;;;;;;;;;;4993903;28;20560;-63
2022/08/06 13:34:55;;;;;;;2.35;1.20;;;;;;;;;;4994097;28;20655;-63
2022/08/06 13:37:40;;;;;;;2.88;1.50;;;;;;;;;;4976547;28;20050;-63
2022/08/06 13:40:07;;;;;;;2.53;1.20;;;;;;;;;;4993628;28;20101;-63
2022/08/06 13:42:33;;;;;;;2.40;1.30;;;;;;;;;;4993942;28;20034;-63
2022/08/06 13:44:59;;;;;;;2.42;1.25;;;;;;;;;;4993222;28;20051;-63
2022/08/06 13:47:27;;;;;;;1.50;1.30;;;;;;;;;;4993009;28;20144;-63
2022/08/06 13:49:53;;;;;;;2.10;1.50;;;;;;;;;;4993952;28;20055;-63
2022/08/06 13:52:19;;;;;;;4.43;1.73;;;;;;;;;;4993983;28;20039;-63
2022/08/06 13:54:45;;;;;;;2.45;1.52;;;;;;;;;;4993431;28;20493;-63
2022/08/06 13:57:11;;;;;;;3.33;1.35;;;;;;;;;;4993690;28;20045;-63
2022/08/06 13:59:37;;;;;;;2.05;1.20;;;;;;;;;;4993543;28;20048;-63
2022/08/06 14:02:04;;;;;;;2.50;1.52;;;;;;;;;;4993410;28;20381;-63
2022/08/06 14:04:31;;;;;;;6.13;2.05;;;;;;;;;;4993629;28;20042;-63
2022/08/06 14:06:58;;;;;;;3.80;1.50;;;;;;;;;;4993598;28;20057;-63
2022/08/06 14:09:26;;;;;;;4.15;1.83;;;;;;;;;;4992959;28;20077;-63
2022/08/06 14:11:55;;;;;;;2.42;1.65;;;;;;;;;;4993746;28;20038;-63
2022/08/06 14:14:21;;;;;;;3.47;1.65;;;;;;;;;;4993464;28;20042;-63
2022/08/06 14:16:47;;;;;;;2.00;1.27;;;;;;;;;;4959094;28;20064;-63
2022/08/06 14:19:14;;;;;;;3.20;1.40;;;;;;;;;;4993561;28;20500;-63
2022/08/06 14:21:40;;;;;;;1.40;1.27;;;;;;;;;;4993468;28;20034;-63
2022/08/06 14:24:06;;;;;;;1.85;1.10;;;;;;;;;;4992935;28;20118;-63
2022/08/06 14:26:32;;;;;;;2.95;1.30;;;;;;;;;;4992991;28;20501;-63
2022/08/06 14:28:58;;;;;;;3.05;1.20;;;;;;;;;;4993147;28;20117;-63
2022/08/06 14:31:24;;;;;;;1.65;1.30;;;;;;;;;;4992659;28;20053;-63
2022/08/06 14:33:50;;;;;;;2.75;1.27;;;;;;;;;;4993028;28;20038;-63
2022/08/06 14:36:16;;;;;;;3.17;1.10;;;;;;;;;;4992961;28;20046;-63
2022/08/06 14:38:45;;;;;;;2.05;1.08;;;;;;;;;;4992391;28;20457;-63
2022/08/06 14:46:41;;;;;;;2.78;1.70;;;;;;;;;;4991771;28;20141;-63
2022/08/06 14:49:07;;;;;;;3.33;1.60;;;;;;;;;;4991744;28;20397;-63
2022/08/06 14:51:33;;;;;;;1.70;1.60;;;;;;;;;;4992372;28;20048;-63
2022/08/06 14:53:59;;;;;;;2.97;1.50;;;;;;;;;;4991984;28;20048;-63
2022/08/06 14:56:25;;;;;;;3.45;1.70;;;;;;;;;;4991698;28;20085;-63
2022/08/06 14:58:51;;;;;;;1.73;1.60;;;;;;;;;;4991626;28;20038;-63
2022/08/06 15:01:17;;;;;;;1.88;1.67;;;;;;;;;;4992129;28;20048;-63
2022/08/06 15:03:44;;;;;;;2.38;1.30;;;;;;;;;;4992646;28;20093;-63
2022/08/06 15:06:10;;;;;;;2.05;1.50;;;;;;;;;;4992203;28;20042;-63